Terminal Aerodrome Forecast
Issued by NWS Flagstaff, AZ

Home | Current Version | Previous Version | Text Only | Print | Product List | Glossary On
Versions: 1 2 3 4 5 6 7 8 9 10 11 12 13 14 15 16 17 18 19 20 21 22 23
140
FTUS45 KFGZ 250306 AAA
TAFFLG
TAF AMD
KFLG 250306Z 2503/2524 06005KT P6SM SKC
     FM250600 06008G16KT P6SM SKC
     FM251200 06014G23KT P6SM SKC
     FM251800 04013G20KT P6SM SKC=

USA.gov is the U.S. government's official web portal to all federal, state and local government web resources and services.